Time;durP1;ratioP1;P1;durP2;ratioP2;P2;SDS_P1;SDS_P2;PMS_P1;PMS_P2;Temp;Humidity;BMP_temperature;BMP_pressure;BME280_temperature;BME280_humidity;BME280_pressure;Samples;Min_cycle;Max_cycle;Signal;HPM_P1;HPM_P2
2022/12/01 00:00:53;;;;;;;;;;;;;;;9.16;66.01;95249.63;5114671;28;1024;-67
2022/12/01 00:03:19;;;;;;;;;;;;;;;9.25;65.63;95247.03;5114794;28;1276;-66
2022/12/01 00:05:45;;;;;;;;;;;;;;;9.36;65.30;95260.16;5114565;28;1091;-67
2022/12/01 00:08:12;;;;;;;;;;;;;;;9.21;66.11;95251.00;5114513;28;1049;-67
2022/12/01 00:10:38;;;;;;;;;;;;;;;9.17;65.91;95247.78;5114768;28;1035;-66
2022/12/01 00:13:04;;;;;;;;;;;;;;;9.29;65.85;95251.06;5114262;28;1979;-67
2022/12/01 00:15:33;;;;;;;;;;;;;;;9.36;65.61;95250.31;5114257;28;1042;-66
2022/12/01 00:18:00;;;;;;;;;;;;;;;9.48;65.02;95258.94;5114581;28;969;-67
2022/12/01 00:20:27;;;;;;;;;;;;;;;9.37;65.31;95253.81;5114430;28;1036;-67
2022/12/01 00:22:53;;;;;;;;;;;;;;;9.27;65.36;95250.38;5114393;28;1044;-67
2022/12/01 00:25:20;;;;;;;;;;;;;;;9.38;65.31;95250.16;5114297;28;1024;-67
2022/12/01 00:27:47;;;;;;;;;;;;;;;9.46;64.83;95249.41;5114328;28;1087;-66
2022/12/01 00:30:13;;;;;;;;;;;;;;;9.46;65.16;95249.41;5114091;28;1067;-67
2022/12/01 00:32:39;;;;;;;;;;;;;;;9.45;64.98;95250.41;5114011;28;1933;-66
2022/12/01 00:35:05;;;;;;;;;;;;;;;9.41;65.32;95254.34;5114060;28;1116;-66
2022/12/01 00:37:32;;;;;;;;;;;;;;;9.37;65.54;95254.69;5114124;28;1044;-67
2022/12/01 00:39:58;;;;;;;;;;;;;;;9.14;65.58;95254.28;5096032;28;1161;-66
2022/12/01 00:42:24;;;;;;;;;;;;;;;9.05;66.20;95254.28;5113973;28;985;-67
2022/12/01 00:44:50;;;;;;;;;;;;;;;9.07;66.09;95247.84;5113885;28;1041;-66
2022/12/01 00:47:17;;;;;;;;;;;;;;;8.81;66.91;95252.19;5114076;28;981;-66
2022/12/01 00:49:45;;;;;;;;;;;;;;;8.75;67.29;95251.78;5114138;28;1062;-66
2022/12/01 00:52:12;;;;;;;;;;;;;;;8.79;66.92;95255.00;5113943;28;2000;-65
2022/12/01 00:54:38;;;;;;;;;;;;;;;8.80;67.21;95246.00;5113423;28;1041;-66
2022/12/01 00:57:04;;;;;;;;;;;;;;;8.93;66.69;95246.50;5113747;28;1054;-67
2022/12/01 00:59:30;;;;;;;;;;;;;;;9.06;66.46;95243.47;5113623;28;1060;-67
2022/12/01 01:01:56;;;;;;;;;;;;;;;9.03;66.50;95246.47;5114035;28;957;-67
2022/12/01 01:04:22;;;;;;;;;;;;;;;9.03;66.45;95241.13;5113890;28;1028;-66
2022/12/01 01:06:48;;;;;;;;;;;;;;;9.24;65.92;95242.66;5113816;28;1195;-66
2022/12/01 01:09:15;;;;;;;;;;;;;;;9.30;65.87;95237.59;5095698;28;1675;-66
2022/12/01 01:11:41;;;;;;;;;;;;;;;9.39;65.62;95241.19;5113658;28;1917;-67
2022/12/01 01:14:07;;;;;;;;;;;;;;;9.19;66.30;95227.13;5113502;28;1075;-67
2022/12/01 01:16:34;;;;;;;;;;;;;;;9.27;66.38;95231.72;5113596;28;1019;-66
2022/12/01 01:19:00;;;;;;;;;;;;;;;9.23;66.47;95230.34;5113877;28;1006;-67
2022/12/01 01:21:26;;;;;;;;;;;;;;;9.24;66.33;95234.66;5113500;28;1060;-66
2022/12/01 01:23:53;;;;;;;;;;;;;;;9.26;65.96;95230.00;5113556;28;1127;-67
2022/12/01 01:26:23;;;;;;;;;;;;;;;9.30;66.26;95228.75;5113479;28;1020;-67
2022/12/01 01:28:50;;;;;;;;;;;;;;;9.18;66.30;95225.44;5113574;28;992;-66
2022/12/01 01:31:20;;;;;;;;;;;;;;;9.16;66.41;95225.63;5113626;28;2336;-67
2022/12/01 01:33:47;;;;;;;;;;;;;;;9.17;66.27;95229.09;5113468;28;1041;-66
2022/12/01 01:36:13;;;;;;;;;;;;;;;9.31;66.02;95223.25;5113550;28;1036;-67
2022/12/01 01:38:39;;;;;;;;;;;;;;;9.40;65.66;95221.50;5113467;28;1162;-67
2022/12/01 01:41:06;;;;;;;;;;;;;;;9.34;65.40;95216.78;5113394;28;1092;-66
2022/12/01 01:43:40;;;;;;;;;;;;;;;9.37;65.70;95213.78;5113247;28;1037;-66
2022/12/01 01:46:07;;;;;;;;;;;;;;;9.46;64.96;95210.22;5113591;28;996;-66
2022/12/01 01:48:35;;;;;;;;;;;;;;;9.30;65.63;95208.25;5113467;28;976;-66
2022/12/01 01:51:01;;;;;;;;;;;;;;;9.19;66.13;95219.13;5113373;28;1910;-67
2022/12/01 01:53:27;;;;;;;;;;;;;;;9.22;66.23;95217.97;5113318;28;1044;-67
2022/12/01 01:55:53;;;;;;;;;;;;;;;9.34;66.67;95217.59;5113307;28;1012;-67
2022/12/01 01:58:19;;;;;;;;;;;;;;;9.40;65.79;95210.00;5113128;28;1046;-66
2022/12/01 02:00:46;;;;;;;;;;;;;;;9.40;66.06;95202.81;5113218;28;1091;-66
2022/12/01 02:03:14;;;;;;;;;;;;;;;9.33;66.01;95207.94;5113182;28;1100;-67
2022/12/01 02:05:41;;;;;;;;;;;;;;;9.25;66.08;95207.00;5113156;28;1053;-66
2022/12/01 02:08:11;;;;;;;;;;;;;;;8.89;67.54;95204.28;5116204;28;960;-66
2022/12/01 02:10:37;;;;;;;;;;;;;;;8.99;68.05;95205.06;5116680;28;1111;-66
2022/12/01 02:13:03;;;;;;;;;;;;;;;8.98;67.90;95203.41;5116788;28;1985;-67
2022/12/01 02:15:34;;;;;;;;;;;;;;;9.07;67.94;95194.50;5116859;28;957;-66
2022/12/01 02:18:00;;;;;;;;;;;;;;;9.12;68.29;95199.38;5116885;28;957;-67
2022/12/01 02:20:38;;;;;;;;;;;;;;;9.10;67.89;95188.03;5116545;28;1053;-66
2022/12/01 02:23:15;;;;;;;;;;;;;;;9.19;68.37;95195.13;5098406;28;1097;-66
2022/12/01 02:25:44;;;;;;;;;;;;;;;9.17;68.88;95184.59;5116815;28;1015;-67
2022/12/01 02:28:30;;;;;;;;;;;;;;;8.84;69.87;95183.44;5116468;28;1108;-66
2022/12/01 02:31:03;;;;;;;;;;;;;;;8.77;70.58;95180.50;5116509;28;1914;-67
2022/12/01 02:33:38;;;;;;;;;;;;;;;8.88;71.08;95187.47;5116218;28;1051;-67
2022/12/01 02:36:23;;;;;;;;;;;;;;;8.83;70.96;95180.91;5116326;28;1048;-67
2022/12/01 02:38:55;;;;;;;;;;;;;;;8.64;71.91;95185.34;5116332;28;1145;-66
2022/12/01 02:41:21;;;;;;;;;;;;;;;8.56;72.05;95182.59;5116291;28;1009;-66
2022/12/01 02:43:53;;;;;;;;;;;;;;;8.51;72.73;95179.53;5116212;28;1071;-67
2022/12/01 02:46:19;;;;;;;;;;;;;;;8.45;73.00;95183.63;5115999;28;1033;-67
2022/12/01 02:48:48;;;;;;;;;;;;;;;8.39;73.44;95182.34;5116302;28;1120;-65
2022/12/01 02:51:20;;;;;;;;;;;;;;;8.37;73.34;95176.34;5115815;28;1913;-66
2022/12/01 02:53:46;;;;;;;;;;;;;;;8.25;73.65;95181.97;5098011;28;993;-66
2022/12/01 02:56:14;;;;;;;;;;;;;;;8.23;73.60;95179.47;5115829;28;1049;-66
2022/12/01 02:58:41;;;;;;;;;;;;;;;8.24;74.00;95173.16;5115793;28;1237;-67
2022/12/01 03:01:23;;;;;;;;;;;;;;;8.41;73.46;95176.88;5116058;28;977;-67
2022/12/01 03:04:12;;;;;;;;;;;;;;;8.62;72.52;95171.34;5115986;28;1052;-66
2022/12/01 03:07:01;;;;;;;;;;;;;;;8.59;72.26;95166.28;5115344;28;1427;-66
2022/12/01 03:09:39;;;;;;;;;;;;;;;8.32;72.96;95173.25;5068448;28;1181;-67
2022/12/01 03:12:28;;;;;;;;;;;;;;;8.29;73.01;95178.03;5115563;28;1894;-67
2022/12/01 03:15:07;;;;;;;;;;;;;;;8.41;72.83;95171.53;5051361;28;1167;-66
2022/12/01 03:17:37;;;;;;;;;;;;;;;8.59;71.75;95159.16;5114974;28;1103;-67
2022/12/01 03:20:10;;;;;;;;;;;;;;;8.58;71.62;95156.63;5115571;28;1041;-67
2022/12/01 03:22:48;;;;;;;;;;;;;;;8.42;72.18;95167.09;5115572;28;1063;-67
2022/12/01 03:25:15;;;;;;;;;;;;;;;8.38;72.58;95174.50;5115438;28;1051;-66
2022/12/01 03:27:42;;;;;;;;;;;;;;;8.66;72.17;95163.88;5115341;28;1052;-67
2022/12/01 03:30:09;;;;;;;;;;;;;;;8.58;71.90;95162.78;5115226;28;1103;-67
2022/12/01 03:32:46;;;;;;;;;;;;;;;8.48;72.47;95164.69;5115065;28;1909;-66
2022/12/01 03:35:15;;;;;;;;;;;;;;;8.52;71.97;95162.56;5115334;28;1024;-66
2022/12/01 03:37:47;;;;;;;;;;;;;;;8.38;72.00;95175.34;5115098;28;1065;-66
2022/12/01 03:40:16;;;;;;;;;;;;;;;8.37;71.86;95162.19;5114957;28;1142;-68
2022/12/01 03:42:46;;;;;;;;;;;;;;;8.34;72.06;95155.28;5114934;28;1065;-68
2022/12/01 03:45:35;;;;;;;;;;;;;;;8.33;72.11;95164.28;5114866;28;1049;-68
2022/12/01 03:48:01;;;;;;;;;;;;;;;8.37;71.80;95163.00;5101821;28;1137;-68
2022/12/01 03:50:32;;;;;;;;;;;;;;;8.44;71.46;95163.28;5114790;28;1020;-68
2022/12/01 03:53:02;;;;;;;;;;;;;;;8.42;71.42;95162.59;5114627;28;1909;-67
2022/12/01 03:55:29;;;;;;;;;;;;;;;8.34;71.63;95165.13;5114855;28;1002;-68
2022/12/01 03:58:05;;;;;;;;;;;;;;;8.43;71.39;95163.44;5096800;28;977;-68
2022/12/01 04:00:31;;;;;;;;;;;;;;;8.42;71.05;95161.75;5096562;28;1029;-68
2022/12/01 04:02:58;;;;;;;;;;;;;;;8.49;70.86;95152.19;5114551;28;1124;-67
2022/12/01 04:05:24;;;;;;;;;;;;;;;8.56;71.05;95155.94;5114543;28;1028;-67
2022/12/01 04:07:50;;;;;;;;;;;;;;;8.65;70.47;95162.19;5114440;28;1000;-67
2022/12/01 04:10:17;;;;;;;;;;;;;;;8.50;71.13;95159.19;5114551;28;973;-68
2022/12/01 04:12:43;;;;;;;;;;;;;;;8.62;70.86;95165.19;5114319;28;1917;-68
2022/12/01 04:15:13;;;;;;;;;;;;;;;8.43;71.01;95166.09;5114182;28;1202;-68
2022/12/01 04:17:43;;;;;;;;;;;;;;;8.51;71.29;95171.53;5114388;28;1008;-67
2022/12/01 04:20:11;;;;;;;;;;;;;;;8.71;70.88;95167.78;5114213;28;1056;-68
2022/12/01 04:22:37;;;;;;;;;;;;;;;8.55;71.64;95162.25;5114422;28;1268;-67
2022/12/01 04:25:03;;;;;;;;;;;;;;;8.62;71.59;95163.34;5114193;28;1127;-68
2022/12/01 04:27:29;;;;;;;;;;;;;;;8.47;72.01;95173.66;5114107;28;1045;-67
2022/12/01 04:29:56;;;;;;;;;;;;;;;8.59;72.36;95167.16;5113471;28;1056;-68
2022/12/01 04:32:22;;;;;;;;;;;;;;;8.71;71.93;95172.28;5114033;28;1906;-68
2022/12/01 04:34:48;;;;;;;;;;;;;;;8.75;71.51;95179.00;5113977;28;1023;-68
2022/12/01 04:37:14;;;;;;;;;;;;;;;8.58;72.25;95176.13;5114220;28;972;-68
2022/12/01 04:39:43;;;;;;;;;;;;;;;8.44;72.87;95189.91;5113908;28;1145;-68
2022/12/01 04:42:09;;;;;;;;;;;;;;;8.49;73.58;95189.50;5113964;28;1123;-68
2022/12/01 04:44:35;;;;;;;;;;;;;;;8.37;73.42;95184.31;5113960;28;1072;-68
2022/12/01 04:47:02;;;;;;;;;;;;;;;8.21;73.79;95187.63;5113968;28;1044;-69
2022/12/01 04:49:28;;;;;;;;;;;;;;;8.25;73.21;95187.31;5113830;28;1048;-68
2022/12/01 04:51:54;;;;;;;;;;;;;;;8.24;73.69;95193.63;5113722;28;1910;-67
2022/12/01 04:54:21;;;;;;;;;;;;;;;8.10;73.48;95189.59;5113987;28;1048;-68
2022/12/01 04:56:47;;;;;;;;;;;;;;;7.93;73.95;95186.72;5113957;28;1016;-68
2022/12/01 04:59:13;;;;;;;;;;;;;;;7.92;73.61;95192.19;5113747;28;980;-68
2022/12/01 05:01:39;;;;;;;;;;;;;;;7.95;74.00;95187.41;5113789;28;1052;-68
2022/12/01 05:04:05;;;;;;;;;;;;;;;7.88;73.89;95188.13;5113763;28;993;-66
2022/12/01 05:06:31;;;;;;;;;;;;;;;7.84;73.84;95189.41;5113607;28;1213;-65
2022/12/01 05:08:58;;;;;;;;;;;;;;;7.73;74.00;95196.56;5113882;28;973;-66
2022/12/01 05:11:25;;;;;;;;;;;;;;;7.85;74.03;95191.06;5113483;28;1910;-66
2022/12/01 05:13:52;;;;;;;;;;;;;;;8.07;73.24;95193.41;5113620;28;1237;-67
2022/12/01 05:16:19;;;;;;;;;;;;;;;8.07;73.14;95188.06;5113649;28;1037;-66
2022/12/01 05:21:39;;;;;;;;;;;;;;;7.79;74.54;95195.13;5113606;28;1041;-66
2022/12/01 05:24:05;;;;;;;;;;;;;;;7.58;73.98;95193.47;5113663;28;1040;-66
2022/12/01 05:26:31;;;;;;;;;;;;;;;7.52;74.79;95199.38;5113517;28;1044;-66
2022/12/01 05:28:57;;;;;;;;;;;;;;;7.62;74.78;95200.19;5113598;28;1120;-66
2022/12/01 05:31:23;;;;;;;;;;;;;;;7.74;74.80;95192.94;5113286;28;1906;-67
2022/12/01 05:33:49;;;;;;;;;;;;;;;7.92;73.93;95202.84;5113485;28;946;-67
2022/12/01 05:36:15;;;;;;;;;;;;;;;8.09;73.21;95190.59;5113567;28;1240;-67
2022/12/01 05:38:41;;;;;;;;;;;;;;;8.02;73.07;95191.19;5113364;28;1161;-67
2022/12/01 05:41:08;;;;;;;;;;;;;;;8.13;72.50;95189.31;5115069;28;1036;-67
2022/12/01 05:43:34;;;;;;;;;;;;;;;8.00;73.32;95181.63;5117347;28;1028;-67
2022/12/01 05:46:00;;;;;;;;;;;;;;;7.71;73.94;95182.56;5099202;28;1108;-67
2022/12/01 05:48:26;;;;;;;;;;;;;;;7.73;74.12;95188.56;5117412;28;1000;-66
2022/12/01 05:50:52;;;;;;;;;;;;;;;7.88;73.59;95180.16;5117347;28;1024;-67
2022/12/01 05:53:18;;;;;;;;;;;;;;;8.03;73.61;95186.69;5117186;28;1969;-68
2022/12/01 05:55:44;;;;;;;;;;;;;;;8.17;73.23;95191.53;5117237;28;977;-66
2022/12/01 05:58:11;;;;;;;;;;;;;;;8.13;72.81;95184.00;5117099;28;1119;-68
2022/12/01 06:00:37;;;;;;;;;;;;;;;7.99;73.13;95179.97;5116943;28;1561;-66
2022/12/01 06:03:04;;;;;;;;;;;;;;;8.05;72.89;95186.56;5116979;28;1064;-66
2022/12/01 06:05:30;;;;;;;;;;;;;;;8.18;72.55;95195.06;5116862;28;1483;-66
2022/12/01 06:07:56;;;;;;;;;;;;;;;8.16;72.16;95186.38;5116865;28;1113;-68
2022/12/01 06:10:22;;;;;;;;;;;;;;;8.01;73.34;95196.66;5116867;28;1040;-67
2022/12/01 06:12:48;;;;;;;;;;;;;;;8.19;72.60;95200.25;5116774;28;1901;-67
2022/12/01 06:15:14;;;;;;;;;;;;;;;8.25;72.30;95195.31;5116464;28;1370;-67
2022/12/01 06:17:40;;;;;;;;;;;;;;;8.26;72.66;95197.00;5098871;28;1784;-65
2022/12/01 06:20:06;;;;;;;;;;;;;;;8.24;72.71;95201.63;5116846;28;1004;-67
2022/12/01 06:22:32;;;;;;;;;;;;;;;8.23;72.41;95192.78;5116714;28;1078;-67
2022/12/01 06:24:58;;;;;;;;;;;;;;;8.15;72.80;95192.69;5116609;28;1021;-66
2022/12/01 06:27:24;;;;;;;;;;;;;;;8.08;72.89;95196.91;5116515;28;1071;-67
2022/12/01 06:29:50;;;;;;;;;;;;;;;7.99;73.50;95195.97;5116482;28;1049;-67
2022/12/01 06:32:17;;;;;;;;;;;;;;;7.79;73.81;95203.97;5116273;28;1909;-66
2022/12/01 06:34:43;;;;;;;;;;;;;;;7.71;74.36;95198.53;5116405;28;1052;-66
2022/12/01 06:37:10;;;;;;;;;;;;;;;7.76;74.15;95193.63;5098270;28;940;-67
2022/12/01 06:39:36;;;;;;;;;;;;;;;7.72;74.47;95197.56;5116125;28;1142;-67
2022/12/01 06:42:02;;;;;;;;;;;;;;;7.80;73.56;95210.16;5116269;28;969;-67
2022/12/01 06:44:28;;;;;;;;;;;;;;;7.82;73.56;95201.03;5116079;28;1104;-67
2022/12/01 06:46:55;;;;;;;;;;;;;;;7.89;73.57;95203.97;5116433;28;941;-67
2022/12/01 06:49:21;;;;;;;;;;;;;;;7.88;73.21;95206.78;5116264;28;1013;-67
2022/12/01 06:51:48;;;;;;;;;;;;;;;7.91;73.31;95211.78;5115879;28;1905;-68
2022/12/01 06:54:16;;;;;;;;;;;;;;;7.91;73.05;95217.09;5115464;28;1032;-67
2022/12/01 06:56:43;;;;;;;;;;;;;;;7.77;73.69;95215.75;5115952;28;1516;-68
2022/12/01 06:59:09;;;;;;;;;;;;;;;7.61;73.24;95211.84;5115834;28;1053;-68
2022/12/01 07:01:35;;;;;;;;;;;;;;;7.57;74.12;95212.25;5115839;28;1104;-68
2022/12/01 07:04:01;;;;;;;;;;;;;;;7.69;74.23;95205.81;5097511;28;1111;-69
2022/12/01 07:06:28;;;;;;;;;;;;;;;7.90;73.43;95204.81;5077175;28;1526;-67
2022/12/01 07:08:54;;;;;;;;;;;;;;;7.93;73.62;95208.03;5115728;28;1127;-66
2022/12/01 07:11:20;;;;;;;;;;;;;;;8.01;72.81;95200.13;5115565;28;2003;-67
2022/12/01 07:13:48;;;;;;;;;;;;;;;7.99;73.15;95217.25;5115593;28;1217;-67
2022/12/01 07:16:14;;;;;;;;;;;;;;;7.96;73.11;95207.72;5115567;28;1019;-67
2022/12/01 07:18:43;;;;;;;;;;;;;;;7.86;72.33;95198.09;5115512;28;1285;-67
2022/12/01 07:21:10;;;;;;;;;;;;;;;7.79;72.89;95200.47;5115795;28;1250;-68
2022/12/01 07:23:36;;;;;;;;;;;;;;;7.85;73.23;95207.03;5115413;28;1048;-67
2022/12/01 07:26:04;;;;;;;;;;;;;;;7.82;72.87;95209.00;5115355;28;1376;-67
2022/12/01 07:28:30;;;;;;;;;;;;;;;7.74;73.24;95208.91;5115497;28;1062;-67
2022/12/01 07:31:15;;;;;;;;;;;;;;;7.74;72.51;95218.69;5096646;28;1296;-67
2022/12/01 07:33:42;;;;;;;;;;;;;;;7.52;73.64;95212.69;5115534;28;953;-67
2022/12/01 07:36:08;;;;;;;;;;;;;;;7.70;74.12;95217.28;5119734;27;1048;-68
2022/12/01 07:38:34;;;;;;;;;;;;;;;7.88;73.12;95212.94;5129828;27;1191;-68
2022/12/01 07:41:02;;;;;;;;;;;;;;;7.82;73.42;95210.84;5115059;28;1258;-68
2022/12/01 07:43:28;;;;;;;;;;;;;;;7.88;72.47;95207.59;5115168;28;1130;-68
2022/12/01 07:45:54;;;;;;;;;;;;;;;7.99;72.82;95210.09;5115022;28;1120;-67
2022/12/01 07:48:20;;;;;;;;;;;;;;;7.97;72.41;95206.75;5097164;28;1055;-68
2022/12/01 07:50:46;;;;;;;;;;;;;;;7.95;72.66;95215.88;5114975;28;1009;-67
2022/12/01 07:53:12;;;;;;;;;;;;;;;7.96;72.77;95223.69;5096356;28;1910;-66
2022/12/01 07:55:38;;;;;;;;;;;;;;;7.98;73.61;95218.22;5115051;28;984;-66
2022/12/01 07:58:04;;;;;;;;;;;;;;;8.01;73.16;95212.63;5115084;28;1235;-66
2022/12/01 08:00:30;;;;;;;;;;;;;;;7.92;73.15;95216.16;5114816;28;1033;-66
2022/12/01 08:02:56;;;;;;;;;;;;;;;7.83;73.89;95209.84;5114659;28;1146;-67
2022/12/01 08:05:22;;;;;;;;;;;;;;;7.95;72.99;95223.84;5114814;28;1041;-67
2022/12/01 08:07:48;;;;;;;;;;;;;;;8.07;72.57;95220.03;5114855;28;1060;-66
2022/12/01 08:10:14;;;;;;;;;;;;;;;8.00;73.10;95226.91;5114337;28;1037;-66
2022/12/01 08:12:40;;;;;;;;;;;;;;;8.00;73.45;95219.75;5114110;28;1914;-66
2022/12/01 08:15:07;;;;;;;;;;;;;;;7.99;73.18;95220.75;5096259;28;1112;-67
2022/12/01 08:17:33;;;;;;;;;;;;;;;8.08;72.52;95212.88;5114615;28;966;-69
2022/12/01 08:19:59;;;;;;;;;;;;;;;8.24;72.57;95209.63;5096418;28;1044;-69
2022/12/01 08:22:25;;;;;;;;;;;;;;;8.15;72.23;95206.00;5113948;28;1194;-68
2022/12/01 08:24:51;;;;;;;;;;;;;;;8.01;71.98;95205.47;5114186;28;1146;-67
2022/12/01 08:27:17;;;;;;;;;;;;;;;8.06;72.99;95213.00;5114152;28;938;-67
2022/12/01 08:29:43;;;;;;;;;;;;;;;8.08;72.55;95216.41;5114430;28;1048;-67
2022/12/01 08:32:09;;;;;;;;;;;;;;;8.17;72.14;95223.50;5095719;28;1987;-66
2022/12/01 08:34:37;;;;;;;;;;;;;;;8.30;71.74;95233.84;5114085;28;957;-66
2022/12/01 08:37:03;;;;;;;;;;;;;;;8.28;70.72;95225.16;5114036;28;1073;-67
2022/12/01 08:39:29;;;;;;;;;;;;;;;8.18;71.70;95225.19;5114018;28;1216;-66
2022/12/01 08:41:55;;;;;;;;;;;;;;;8.15;71.55;95227.28;5114006;28;1099;-70
2022/12/01 08:44:27;;;;;;;;;;;;;;;8.23;71.66;95226.56;5113953;28;1108;-67
2022/12/01 08:46:54;;;;;;;;;;;;;;;8.34;71.42;95226.41;5113968;28;1238;-68
2022/12/01 08:49:21;;;;;;;;;;;;;;;8.21;70.35;95208.94;5113837;28;1068;-66
2022/12/01 08:51:47;;;;;;;;;;;;;;;7.96;70.67;95223.69;5113562;28;1905;-66
2022/12/01 08:54:13;;;;;;;;;;;;;;;7.97;71.25;95216.56;5113710;28;1052;-66
2022/12/01 08:56:41;;;;;;;;;;;;;;;8.05;70.72;95222.00;5114148;28;1036;-65
2022/12/01 08:59:07;;;;;;;;;;;;;;;7.93;71.35;95223.13;5113801;28;1084;-65
2022/12/01 09:01:34;;;;;;;;;;;;;;;8.00;70.71;95224.25;5113722;28;1370;-66
2022/12/01 09:04:04;;;;;;;;;;;;;;;7.62;70.80;95220.66;5113712;28;1093;-66
2022/12/01 09:06:31;;;;;;;;;;;;;;;7.64;71.44;95221.34;5113696;28;1044;-65
2022/12/01 09:08:58;;;;;;;;;;;;;;;7.63;71.28;95215.19;5113934;28;1020;-65
2022/12/01 09:11:24;;;;;;;;;;;;;;;7.69;71.97;95213.78;5095513;28;1973;-65
2022/12/01 09:13:50;;;;;;;;;;;;;;;7.72;70.63;95213.53;5095670;28;1183;-66
2022/12/01 09:16:17;;;;;;;;;;;;;;;7.82;71.26;95214.34;5115771;28;1271;-66
2022/12/01 09:18:44;;;;;;;;;;;;;;;7.99;70.97;95210.09;5117894;28;1009;-65
2022/12/01 09:21:13;;;;;;;;;;;;;;;7.96;71.05;95209.53;5117774;28;1052;-65
2022/12/01 09:23:39;;;;;;;;;;;;;;;7.96;70.62;95213.03;5117990;28;1068;-66
2022/12/01 09:26:06;;;;;;;;;;;;;;;8.08;71.04;95213.72;5117742;28;1040;-65
2022/12/01 09:28:32;;;;;;;;;;;;;;;8.15;69.92;95204.16;5117541;28;1140;-66
2022/12/01 09:31:09;;;;;;;;;;;;;;;8.30;70.39;95207.19;5116811;28;1219;-66
2022/12/01 09:33:35;;;;;;;;;;;;;;;8.24;70.04;95205.13;5117462;28;1041;-67
2022/12/01 09:36:01;;;;;;;;;;;;;;;8.30;70.25;95204.53;5117402;28;1092;-67
2022/12/01 09:38:28;;;;;;;;;;;;;;;8.19;69.15;95202.91;5099259;28;1181;-73
2022/12/01 09:40:54;;;;;;;;;;;;;;;8.18;70.45;95208.38;5117135;28;1154;-67
2022/12/01 09:43:23;;;;;;;;;;;;;;;7.99;68.96;95196.78;5117441;28;1037;-68
2022/12/01 09:45:58;;;;;;;;;;;;;;;8.05;70.03;95206.03;5117466;28;1257;-68
2022/12/01 09:48:27;;;;;;;;;;;;;;;8.12;70.23;95204.47;5117103;28;1108;-68
2022/12/01 09:50:53;;;;;;;;;;;;;;;8.36;69.65;95201.28;5116948;28;1175;-68
2022/12/01 09:53:21;;;;;;;;;;;;;;;8.57;69.91;95194.91;5117239;28;1985;-68
2022/12/01 09:55:48;;;;;;;;;;;;;;;8.52;69.21;95206.03;5117436;28;970;-68
2022/12/01 09:58:16;;;;;;;;;;;;;;;8.50;68.94;95197.34;5117327;28;982;-68
2022/12/01 10:00:43;;;;;;;;;;;;;;;8.56;70.24;95194.09;5117016;28;1074;-67
2022/12/01 10:03:12;;;;;;;;;;;;;;;8.70;69.75;95186.59;5116927;28;1116;-68
2022/12/01 10:05:41;;;;;;;;;;;;;;;8.74;69.09;95180.78;5117117;28;953;-66
2022/12/01 10:08:11;;;;;;;;;;;;;;;8.76;69.63;95178.84;5117188;28;985;-68
2022/12/01 10:10:39;;;;;;;;;;;;;;;8.78;68.87;95186.66;5116511;28;1104;-71
2022/12/01 10:13:14;;;;;;;;;;;;;;;8.79;69.43;95189.19;5116842;28;1997;-68
2022/12/01 10:15:40;;;;;;;;;;;;;;;8.79;69.20;95191.03;5116723;28;1030;-68
2022/12/01 10:18:17;;;;;;;;;;;;;;;8.74;68.61;95188.78;5116947;28;997;-68
2022/12/01 10:20:47;;;;;;;;;;;;;;;8.64;68.22;95180.03;5116726;28;1244;-68
2022/12/01 10:23:19;;;;;;;;;;;;;;;8.42;69.20;95183.06;5116688;28;958;-68
2022/12/01 10:26:06;;;;;;;;;;;;;;;8.38;69.42;95183.34;5116859;28;1000;-68
2022/12/01 10:28:45;;;;;;;;;;;;;;;8.46;69.34;95187.13;5114975;28;1152;-68
2022/12/01 10:31:14;;;;;;;;;;;;;;;8.52;69.01;95181.22;5116097;28;1972;-68
2022/12/01 10:34:00;;;;;;;;;;;;;;;8.66;69.19;95183.38;5116712;28;1020;-68
2022/12/01 10:36:27;;;;;;;;;;;;;;;8.77;69.05;95180.50;5116301;28;1028;-68
2022/12/01 10:38:53;;;;;;;;;;;;;;;8.59;68.02;95182.28;5116165;28;1221;-68
2022/12/01 10:41:21;;;;;;;;;;;;;;;8.45;69.00;95174.78;5116183;28;1045;-68
2022/12/01 10:43:49;;;;;;;;;;;;;;;8.54;68.54;95165.91;5116395;28;1080;-68
2022/12/01 10:46:22;;;;;;;;;;;;;;;8.61;68.00;95172.31;5116143;28;1053;-68
2022/12/01 10:49:11;;;;;;;;;;;;;;;8.71;68.67;95178.44;5116230;28;1044;-68
2022/12/01 10:51:46;;;;;;;;;;;;;;;8.83;68.49;95171.06;5105252;28;1984;-69
2022/12/01 10:54:12;;;;;;;;;;;;;;;9.07;67.43;95172.31;5116031;28;1085;-67
2022/12/01 10:56:42;;;;;;;;;;;;;;;8.93;66.85;95176.34;5116286;28;1082;-66
2022/12/01 10:59:22;;;;;;;;;;;;;;;9.01;68.16;95172.91;5115989;28;1049;-69
2022/12/01 11:01:48;;;;;;;;;;;;;;;9.06;67.60;95171.47;5115900;28;1426;-68
2022/12/01 11:04:32;;;;;;;;;;;;;;;9.16;67.79;95168.72;5115938;28;1046;-68
2022/12/01 11:06:58;;;;;;;;;;;;;;;9.19;68.08;95171.94;5115801;28;1041;-68
2022/12/01 11:09:26;;;;;;;;;;;;;;;9.12;67.99;95167.38;5115911;28;1045;-68
2022/12/01 11:11:57;;;;;;;;;;;;;;;9.09;67.90;95162.34;5114662;28;1901;-68
2022/12/01 11:14:32;;;;;;;;;;;;;;;9.03;68.92;95161.13;5115121;28;1298;-68
2022/12/01 11:17:13;;;;;;;;;;;;;;;8.97;68.25;95161.72;5115681;28;1057;-68
2022/12/01 11:19:39;;;;;;;;;;;;;;;8.84;68.54;95161.22;5115679;28;949;-68
2022/12/01 11:22:25;;;;;;;;;;;;;;;8.79;68.56;95164.38;5115475;28;1112;-68
2022/12/01 11:24:51;;;;;;;;;;;;;;;8.86;69.51;95157.44;5115282;28;1132;-68
2022/12/01 11:27:19;;;;;;;;;;;;;;;8.82;68.63;95153.41;5115541;28;989;-68
2022/12/01 11:29:47;;;;;;;;;;;;;;;8.78;68.44;95158.19;5115353;28;1040;-68
2022/12/01 11:32:19;;;;;;;;;;;;;;;8.81;68.77;95166.88;5115067;28;1910;-67
2022/12/01 11:34:50;;;;;;;;;;;;;;;8.76;68.40;95164.66;5115508;28;1025;-68
2022/12/01 11:37:17;;;;;;;;;;;;;;;8.71;69.37;95157.13;5114993;28;1099;-68
2022/12/01 11:39:46;;;;;;;;;;;;;;;8.81;69.43;95161.56;5114919;28;1154;-68
2022/12/01 11:42:21;;;;;;;;;;;;;;;8.94;69.40;95154.03;5115270;28;1039;-68
2022/12/01 11:44:50;;;;;;;;;;;;;;;9.17;69.75;95155.25;5115086;28;989;-68
2022/12/01 11:47:17;;;;;;;;;;;;;;;9.16;68.71;95153.59;5096783;28;997;-67
2022/12/01 11:49:45;;;;;;;;;;;;;;;9.23;69.04;95150.31;5114886;28;1075;-68
2022/12/01 11:52:21;;;;;;;;;;;;;;;9.33;68.64;95159.06;5115102;28;1909;-68
2022/12/01 11:54:57;;;;;;;;;;;;;;;9.38;68.12;95154.94;5114643;28;1173;-68
2022/12/01 11:57:24;;;;;;;;;;;;;;;9.56;68.05;95154.06;5114830;28;1088;-69
2022/12/01 11:59:50;;;;;;;;;;;;;;;9.65;68.54;95163.81;5114780;28;1036;-68
2022/12/01 12:02:16;;;;;;;;;;;;;;;9.62;67.24;95155.28;5114784;28;1046;-68
2022/12/01 12:04:45;;;;;;;;;;;;;;;9.49;67.42;95156.53;5114667;28;1041;-68
2022/12/01 12:07:20;;;;;;;;;;;;;;;9.46;67.70;95169.34;5114623;28;1592;-68
2022/12/01 12:09:46;;;;;;;;;;;;;;;9.35;67.33;95165.94;5114735;28;1016;-69
2022/12/01 12:12:23;;;;;;;;;;;;;;;9.27;68.09;95159.66;5114674;28;1913;-67
2022/12/01 12:15:21;;;;;;;;;;;;;;;9.10;69.00;95162.19;5092186;28;1345;-69
2022/12/01 12:17:59;;;;;;;;;;;;;;;9.04;68.59;95154.78;5112063;28;1307;-67
2022/12/01 12:20:41;;;;;;;;;;;;;;;9.08;69.20;95158.81;5114477;28;984;-69
2022/12/01 12:23:13;;;;;;;;;;;;;;;8.99;68.44;95165.91;5114311;28;1008;-67
2022/12/01 12:25:56;;;;;;;;;;;;;;;8.95;68.60;95169.03;5114562;28;1028;-66
2022/12/01 12:28:45;;;;;;;;;;;;;;;8.96;69.14;95170.72;5113950;28;1385;-67
2022/12/01 12:31:17;;;;;;;;;;;;;;;8.95;68.25;95179.69;5114169;28;1906;-67
2022/12/01 12:34:09;;;;;;;;;;;;;;;8.81;68.23;95177.56;5114140;28;998;-67
2022/12/01 12:36:56;;;;;;;;;;;;;;;8.79;69.24;95181.19;5114043;28;1096;-67
2022/12/01 12:39:37;;;;;;;;;;;;;;;8.77;68.18;95177.84;5099579;28;1415;-66
2022/12/01 12:42:07;;;;;;;;;;;;;;;8.75;68.09;95182.47;5095972;28;981;-66
2022/12/01 12:44:41;;;;;;;;;;;;;;;8.78;68.51;95184.00;5096267;28;1055;-66
2022/12/01 12:47:13;;;;;;;;;;;;;;;8.74;68.41;95180.78;5114191;28;984;-67
2022/12/01 12:49:39;;;;;;;;;;;;;;;8.71;68.55;95182.94;5113638;28;1438;-66
2022/12/01 12:52:14;;;;;;;;;;;;;;;8.79;68.89;95181.19;5113406;28;1902;-66
2022/12/01 12:54:48;;;;;;;;;;;;;;;8.46;69.19;95189.78;5113783;28;1093;-67
2022/12/01 12:57:17;;;;;;;;;;;;;;;8.49;69.54;95198.31;5114030;28;1012;-66
2022/12/01 12:59:52;;;;;;;;;;;;;;;8.53;69.78;95205.03;5113718;28;1055;-66
2022/12/01 13:02:30;;;;;;;;;;;;;;;8.63;69.44;95188.97;5113815;28;1032;-67
2022/12/01 13:05:02;;;;;;;;;;;;;;;8.59;68.99;95179.63;5113684;28;1143;-66
2022/12/01 13:07:48;;;;;;;;;;;;;;;8.57;68.46;95186.91;5113895;28;1001;-66
2022/12/01 13:10:14;;;;;;;;;;;;;;;8.57;68.98;95186.91;5113602;28;1233;-67
2022/12/01 13:12:47;;;;;;;;;;;;;;;8.49;68.96;95190.31;5113687;28;1987;-66
2022/12/01 13:15:13;;;;;;;;;;;;;;;8.40;69.89;95201.81;5113525;28;1293;-67
2022/12/01 13:17:42;;;;;;;;;;;;;;;8.44;70.16;95191.75;5112942;28;1069;-66
2022/12/01 13:20:17;;;;;;;;;;;;;;;8.35;70.85;95199.63;5113728;28;1097;-66
2022/12/01 13:22:44;;;;;;;;;;;;;;;8.46;70.73;95209.28;5095785;28;1048;-66